• Join FlightAware (Why Join?)
  • Login
  • US Flag 
06:36PM EDT


 

Airport Tracker/Info


-or-


 

Live Flight TrackerFlight Track Log ✈ DAL110 ✈ 07-Feb-2014 ✈ SAEZ / EZE - KATL

Flight Track Log - Related Links

Times and Time Zones

All times are in EST time to prevent confusion due to time zone crossing. See the DAL110 flight status page for this flight to view local times or setup timezone preferences in your user account.

Time Position Orientation Groundspeed Altitude Reporting Facility
EST Latitude Longitude Course Direction KTS MPH feet Rate Location/Type
07:35PM -34.7077 -58.5827 339° North  Level FlightAware Approximate
07:36PM -34.5919 -58.6365 339° North  Level FlightAware Approximate
07:37PM -34.4761 -58.6901 339° North  Level FlightAware Approximate
07:38PM -34.3602 -58.7436 339° North  Level FlightAware Approximate
07:39PM -34.2444 -58.7969 339° North  Level FlightAware Approximate
07:40PM -34.1285 -58.8501 339° North  Level FlightAware Approximate
07:41PM -34.0126 -58.9031 339° North  Level FlightAware Approximate
07:42PM -33.8966 -58.9560 339° North  Level FlightAware Approximate
07:43PM -33.7781 -59.0101 339° North  Level FlightAware Approximate
07:44PM -33.6624 -59.0635 339° North  Level FlightAware Approximate
07:45PM -33.5467 -59.1168 339° North  Level FlightAware Approximate
07:46PM -33.4309 -59.1699 339° North  Level FlightAware Approximate
07:47PM -33.3151 -59.2229 339° North  Level FlightAware Approximate
07:48PM -33.1993 -59.2758 339° North  Level FlightAware Approximate
07:49PM -33.0835 -59.3285 339° North  Level FlightAware Approximate
07:50PM -32.9676 -59.3810 339° North  Level FlightAware Approximate
07:51PM -32.8517 -59.4335 339° North  Level FlightAware Approximate
07:52PM -32.7358 -59.4858 339° North  Level FlightAware Approximate
07:53PM -32.6199 -59.5379 339° North  Level FlightAware Approximate
07:54PM -32.5039 -59.5899 339° North  Level FlightAware Approximate
07:55PM -32.3880 -59.6418 339° North  Level FlightAware Approximate
07:56PM -32.2720 -59.6936 339° North  Level FlightAware Approximate
07:57PM -32.1560 -59.7452 339° North  Level FlightAware Approximate
07:58PM -32.0399 -59.7967 339° North  Level FlightAware Approximate
07:59PM -31.9239 -59.8481 339° North  Level FlightAware Approximate
08:00PM -31.8078 -59.8993 339° North  Level FlightAware Approximate
08:01PM -31.6917 -59.9504 339° North  Level FlightAware Approximate
08:02PM -31.5756 -60.0014 339° North  Level FlightAware Approximate
08:03PM -31.4595 -60.0522 340° North  Level FlightAware Approximate
08:04PM -31.3429 -60.1031 340° North  Level FlightAware Approximate
08:05PM -31.2264 -60.1539 340° North  Level FlightAware Approximate
08:06PM -31.1098 -60.2045 340° North  Level FlightAware Approximate
08:07PM -30.9932 -60.2551 340° North  Level FlightAware Approximate
08:08PM -30.8765 -60.3055 340° North  Level FlightAware Approximate
08:09PM -30.7599 -60.3557 340° North  Level FlightAware Approximate
08:10PM -30.6432 -60.4059 340° North  Level FlightAware Approximate
08:11PM -30.5265 -60.4559 340° North  Level FlightAware Approximate
08:12PM -30.4098 -60.5058 340° North  Level FlightAware Approximate
08:13PM -30.2931 -60.5556 340° North  Level FlightAware Approximate
08:14PM -30.1764 -60.6053 340° North  Level FlightAware Approximate
08:15PM -30.0596 -60.6548 340° North  Level FlightAware Approximate
08:16PM -29.9428 -60.7043 340° North  Level FlightAware Approximate
08:17PM -29.8260 -60.7536 340° North  Level FlightAware Approximate
08:18PM -29.7092 -60.8028 340° North  Level FlightAware Approximate
08:19PM -29.5924 -60.8519 340° North  Level FlightAware Approximate
08:20PM -29.4755 -60.9009 340° North  Level FlightAware Approximate
08:21PM -29.3587 -60.9497 340° North  Level FlightAware Approximate
08:22PM -29.2418 -60.9985 340° North  Level FlightAware Approximate
08:23PM -29.1249 -61.0471 340° North  Level FlightAware Approximate
08:24PM -29.0079 -61.0957 340° North  Level FlightAware Approximate
08:25PM -28.8910 -61.1441 340° North  Level FlightAware Approximate
08:26PM -28.7740 -61.1924 340° North  Level FlightAware Approximate
08:27PM -28.6571 -61.2406 340° North  Level FlightAware Approximate
08:28PM -28.5401 -61.2887 340° North  Level FlightAware Approximate
08:29PM -28.4231 -61.3367 340° North  Level FlightAware Approximate
08:30PM -28.3061 -61.3846 340° North  Level FlightAware Approximate
08:31PM -28.1890 -61.4324 340° North  Level FlightAware Approximate
08:32PM -28.0720 -61.4801 340° North  Level FlightAware Approximate
08:33PM -27.9549 -61.5276 340° North  Level FlightAware Approximate
08:34PM -27.8378 -61.5751 340° North  Level FlightAware Approximate
08:35PM -27.7207 -61.6225 340° North  Level FlightAware Approximate
08:36PM -27.6036 -61.6697 340° North  Level FlightAware Approximate
08:37PM -27.4864 -61.7169 340° North  Level FlightAware Approximate
08:38PM -27.3693 -61.7640 340° North  Level FlightAware Approximate
08:39PM -27.2521 -61.8110 340° North  Level FlightAware Approximate
08:40PM -27.1349 -61.8578 340° North  Level FlightAware Approximate
08:41PM -27.0177 -61.9046 340° North  Level FlightAware Approximate
08:42PM -26.9005 -61.9513 340° North  Level FlightAware Approximate
08:43PM -26.7833 -61.9978 340° North  Level FlightAware Approximate
08:44PM -26.6660 -62.0443 340° North  Level FlightAware Approximate
08:45PM -26.5488 -62.0907 341° North  Level FlightAware Approximate
08:46PM -26.4315 -62.1370 341° North  Level FlightAware Approximate
08:47PM -26.3142 -62.1832 341° North  Level FlightAware Approximate
08:48PM -26.1969 -62.2293 341° North  Level FlightAware Approximate
08:49PM -26.0796 -62.2753 341° North  Level FlightAware Approximate
08:50PM -25.9622 -62.3212 341° North  Level FlightAware Approximate
08:51PM -25.8449 -62.3670 341° North  Level FlightAware Approximate
08:52PM -25.7275 -62.4128 341° North  Level FlightAware Approximate
08:53PM -25.6101 -62.4584 341° North  Level FlightAware Approximate
08:54PM -25.4927 -62.5039 341° North  Level FlightAware Approximate
08:55PM -25.3753 -62.5494 341° North  Level FlightAware Approximate
08:56PM -25.2579 -62.5948 341° North  Level FlightAware Approximate
08:57PM -25.1405 -62.6401 341° North  Level FlightAware Approximate
08:58PM -25.0230 -62.6853 341° North  Level FlightAware Approximate
08:59PM -24.9056 -62.7304 341° North  Level FlightAware Approximate
09:00PM -24.7881 -62.7754 341° North  Level FlightAware Approximate
09:01PM -24.6706 -62.8204 341° North  Level FlightAware Approximate
09:02PM -24.5531 -62.8652 341° North  Level FlightAware Approximate
09:03PM -24.4356 -62.9100 341° North  Level FlightAware Approximate
09:04PM -24.3180 -62.9547 341° North  Level FlightAware Approximate
09:05PM -24.2005 -62.9993 341° North  Level FlightAware Approximate
09:06PM -24.0829 -63.0438 341° North  Level FlightAware Approximate
09:07PM -23.9654 -63.0883 341° North  Level FlightAware Approximate
09:08PM -23.8478 -63.1326 341° North  Level FlightAware Approximate
09:09PM -23.7302 -63.1769 341° North  Level FlightAware Approximate
09:10PM -23.6126 -63.2211 341° North  Level FlightAware Approximate
09:11PM -23.4950 -63.2653 341° North  Level FlightAware Approximate
09:12PM -23.3773 -63.3093 341° North  Level FlightAware Approximate
09:13PM -23.2597 -63.3533 341° North  Level FlightAware Approximate
09:14PM -23.1420 -63.3972 341° North  Level FlightAware Approximate
09:15PM -23.0244 -63.4410 341° North  Level FlightAware Approximate
09:16PM -22.9067 -63.4847 341° North  Level FlightAware Approximate
09:17PM -22.7890 -63.5284 341° North  Level FlightAware Approximate
09:18PM -22.6713 -63.5720 341° North  Level FlightAware Approximate
09:19PM -22.5536 -63.6155 341° North  Level FlightAware Approximate
09:20PM -22.4358 -63.6589 341° North  Level FlightAware Approximate
09:21PM -22.3181 -63.7023 341° North  Level FlightAware Approximate
09:22PM -22.2003 -63.7456 341° North  Level FlightAware Approximate
09:23PM -22.0826 -63.7888 341° North  Level FlightAware Approximate
09:24PM -21.9648 -63.8319 341° North  Level FlightAware Approximate
09:25PM -21.8470 -63.8750 341° North  Level FlightAware Approximate
09:26PM -21.7292 -63.9180 341° North  Level FlightAware Approximate
09:27PM -21.6114 -63.9609 341° North  Level FlightAware Approximate
09:28PM -21.4936 -64.0038 341° North  Level FlightAware Approximate
09:29PM -21.3758 -64.0466 341° North  Level FlightAware Approximate
09:30PM -21.2579 -64.0893 341° North  Level FlightAware Approximate
09:31PM -21.1401 -64.1320 341° North  Level FlightAware Approximate
09:32PM -21.0222 -64.1746 341° North  Level FlightAware Approximate
09:33PM -20.9044 -64.2171 341° North  Level FlightAware Approximate
09:34PM -20.7865 -64.2595 341° North  Level FlightAware Approximate
09:35PM -20.6686 -64.3019 341° North  Level FlightAware Approximate
09:36PM -20.5507 -64.3442 341° North  Level FlightAware Approximate
09:37PM -20.4328 -64.3865 341° North  Level FlightAware Approximate
09:38PM -20.3149 -64.4287 341° North  Level FlightAware Approximate
09:39PM -20.1969 -64.4708 341° North  Level FlightAware Approximate
09:40PM -20.0790 -64.5129 341° North  Level FlightAware Approximate
09:41PM -19.9610 -64.5549 341° North  Level FlightAware Approximate
09:42PM -19.8431 -64.5968 342° North  Level FlightAware Approximate
09:43PM -19.7251 -64.6387 342° North  Level FlightAware Approximate
09:44PM -19.6071 -64.6805 342° North  Level FlightAware Approximate
09:45PM -19.4891 -64.7223 342° North  Level FlightAware Approximate
09:46PM -19.3711 -64.7639 342° North  Level FlightAware Approximate
09:47PM -19.2531 -64.8056 342° North  Level FlightAware Approximate
09:48PM -19.1351 -64.8472 342° North  Level FlightAware Approximate
09:49PM -19.0171 -64.8887 342° North  Level FlightAware Approximate
09:50PM -18.8990 -64.9301 342° North  Level FlightAware Approximate
09:51PM -18.7810 -64.9715 342° North  Level FlightAware Approximate
09:52PM -18.6629 -65.0128 342° North  Level FlightAware Approximate
09:53PM -18.5449 -65.0541 342° North  Level FlightAware Approximate
09:54PM -18.4268 -65.0954 342° North  Level FlightAware Approximate
09:55PM -18.3087 -65.1365 342° North  Level FlightAware Approximate
09:56PM -18.1906 -65.1776 342° North  Level FlightAware Approximate
09:57PM -18.0725 -65.2187 342° North  Level FlightAware Approximate
09:58PM -17.9544 -65.2597 342° North  Level FlightAware Approximate
09:59PM -17.8363 -65.3006 342° North  Level FlightAware Approximate
10:00PM -17.7181 -65.3415 342° North  Level FlightAware Approximate
10:01PM -17.6000 -65.3823 342° North  Level FlightAware Approximate
10:02PM -17.4819 -65.4231 342° North  Level FlightAware Approximate
10:03PM -17.3637 -65.4639 342° North  Level FlightAware Approximate
10:04PM -17.2456 -65.5045 342° North  Level FlightAware Approximate
10:05PM -17.1274 -65.5452 342° North  Level FlightAware Approximate
10:06PM -17.0092 -65.5857 342° North  Level FlightAware Approximate
10:07PM -16.8910 -65.6263 342° North  Level FlightAware Approximate
10:08PM -16.7728 -65.6667 342° North  Level FlightAware Approximate
10:09PM -16.6546 -65.7072 342° North  Level FlightAware Approximate
10:10PM -16.5364 -65.7475 342° North  Level FlightAware Approximate
10:11PM -16.4182 -65.7878 342° North  Level FlightAware Approximate
10:12PM -16.3000 -65.8281 342° North  Level FlightAware Approximate
10:13PM -16.1817 -65.8683 342° North  Level FlightAware Approximate
10:14PM -16.0635 -65.9085 342° North  Level FlightAware Approximate
10:15PM -15.9453 -65.9486 342° North  Level FlightAware Approximate
10:16PM -15.8270 -65.9887 342° North  Level FlightAware Approximate
10:17PM -15.7087 -66.0288 342° North  Level FlightAware Approximate
10:18PM -15.5905 -66.0688 342° North  Level FlightAware Approximate
10:19PM -15.4722 -66.1087 342° North  Level FlightAware Approximate
10:20PM -15.3539 -66.1486 342° North  Level FlightAware Approximate
10:21PM -15.2352 -66.1886 342° North  Level FlightAware Approximate
10:22PM -15.1165 -66.2285 342° North  Level FlightAware Approximate
10:23PM -14.9978 -66.2684 342° North  Level FlightAware Approximate
10:24PM -14.8791 -66.3083 342° North  Level FlightAware Approximate
10:25PM -14.7604 -66.3481 342° North  Level FlightAware Approximate
10:26PM -14.6417 -66.3879 342° North  Level FlightAware Approximate
10:27PM -14.5229 -66.4276 342° North  Level FlightAware Approximate
10:28PM -14.4042 -66.4673 342° North  Level FlightAware Approximate
10:29PM -14.2854 -66.5069 342° North  Level FlightAware Approximate
10:30PM -14.1667 -66.5465 342° North  Level FlightAware Approximate
10:31PM -14.0479 -66.5861 342° North  Level FlightAware Approximate
10:32PM -13.9292 -66.6256 342° North  Level FlightAware Approximate
10:33PM -13.8104 -66.6650 342° North  Level FlightAware Approximate
10:34PM -13.6916 -66.7045 342° North  Level FlightAware Approximate
10:35PM -13.5728 -66.7439 342° North  Level FlightAware Approximate
10:36PM -13.4540 -66.7832 342° North  Level FlightAware Approximate
10:37PM -13.3352 -66.8225 342° North  Level FlightAware Approximate
10:38PM -13.2164 -66.8618 342° North  Level FlightAware Approximate
10:39PM -13.0976 -66.9010 342° North  Level FlightAware Approximate
10:40PM -12.9788 -66.9402 342° North  Level FlightAware Approximate
10:41PM -12.8600 -66.9794 342° North  Level FlightAware Approximate
10:42PM -12.7412 -67.0185 342° North  Level FlightAware Approximate
10:43PM -12.6223 -67.0576 342° North  Level FlightAware Approximate
10:44PM -12.5035 -67.0967 342° North  Level FlightAware Approximate
10:45PM -12.3847 -67.1357 342° North  Level FlightAware Approximate
10:46PM -12.2658 -67.1747 342° North  Level FlightAware Approximate
10:47PM -12.1469 -67.2136 342° North  Level FlightAware Approximate
10:48PM -12.0281 -67.2525 342° North  Level FlightAware Approximate
10:49PM -11.9092 -67.2914 342° North  Level FlightAware Approximate
10:50PM -11.7903 -67.3302 342° North  Level FlightAware Approximate
10:51PM -11.6715 -67.3690 342° North  Level FlightAware Approximate
10:52PM -11.5526 -67.4078 342° North  Level FlightAware Approximate
10:53PM -11.4337 -67.4466 342° North  Level FlightAware Approximate
10:54PM -11.3148 -67.4853 342° North  Level FlightAware Approximate
10:55PM -11.1959 -67.5240 342° North  Level FlightAware Approximate
10:56PM -11.0770 -67.5626 342° North  Level FlightAware Approximate
10:57PM -10.9581 -67.6012 342° North  Level FlightAware Approximate
10:58PM -10.8392 -67.6398 342° North  Level FlightAware Approximate
10:59PM -10.7203 -67.6784 342° North  Level FlightAware Approximate
11:00PM -10.6013 -67.7169 342° North  Level FlightAware Approximate
11:01PM -10.4824 -67.7554 342° North  Level FlightAware Approximate
11:02PM -10.3635 -67.7938 342° North  Level FlightAware Approximate
11:03PM -10.2446 -67.8323 342° North  Level FlightAware Approximate
11:04PM -10.1256 -67.8707 342° North  Level FlightAware Approximate
11:05PM -10.0067 -67.9090 342° North  Level FlightAware Approximate
11:06PM -9.8877 -67.9474 342° North  Level FlightAware Approximate
11:07PM -9.7688 -67.9857 342° North  Level FlightAware Approximate
11:08PM -9.6498 -68.0240 342° North  Level FlightAware Approximate
11:09PM -9.5309 -68.0623 342° North  Level FlightAware Approximate
11:10PM -9.4119 -68.1005 342° North  Level FlightAware Approximate
11:11PM -9.2929 -68.1387 342° North  Level FlightAware Approximate
11:12PM -9.1740 -68.1769 342° North  Level FlightAware Approximate
11:13PM -9.0550 -68.2151 342° North  Level FlightAware Approximate
11:14PM -8.9360 -68.2532 342° North  Level FlightAware Approximate
11:15PM -8.8170 -68.2913 342° North  Level FlightAware Approximate
11:16PM -8.6980 -68.3294 342° North  Level FlightAware Approximate
11:17PM -8.5790 -68.3675 342° North  Level FlightAware Approximate
11:18PM -8.4600 -68.4055 342° North  Level FlightAware Approximate
11:19PM -8.3410 -68.4435 342° North  Level FlightAware Approximate
11:20PM -8.2220 -68.4815 342° North  Level FlightAware Approximate
11:21PM -8.1030 -68.5195 342° North  Level FlightAware Approximate
11:22PM -7.9840 -68.5574 342° North  Level FlightAware Approximate
11:23PM -7.8650 -68.5954 342° North  Level FlightAware Approximate
11:24PM -7.7460 -68.6333 342° North  Level FlightAware Approximate
11:25PM -7.6269 -68.6712 342° North  Level FlightAware Approximate
11:26PM -7.5079 -68.7090 342° North  Level FlightAware Approximate
11:27PM -7.3889 -68.7468 343° North  Level FlightAware Approximate
11:28PM -7.2699 -68.7847 343° North  Level FlightAware Approximate
11:29PM -7.1508 -68.8225 343° North  Level FlightAware Approximate
11:30PM -7.0318 -68.8603 343° North  Level FlightAware Approximate
11:31PM -6.9128 -68.8980 343° North  Level FlightAware Approximate
11:32PM -6.7937 -68.9358 343° North  Level FlightAware Approximate
11:33PM -6.6747 -68.9735 343° North  Level FlightAware Approximate
11:34PM -6.5556 -69.0112 343° North  Level FlightAware Approximate
11:35PM -6.4366 -69.0489 343° North  Level FlightAware Approximate
11:36PM -6.3175 -69.0865 343° North  Level FlightAware Approximate
11:37PM -6.1985 -69.1242 343° North  Level FlightAware Approximate
11:38PM -6.0794 -69.1618 343° North  Level FlightAware Approximate
11:39PM -5.9597 -69.1996 343° North  Level FlightAware Approximate
11:40PM -5.8401 -69.2374 343° North  Level FlightAware Approximate
11:41PM -5.7204 -69.2752 343° North  Level FlightAware Approximate
11:42PM -5.6007 -69.3130 343° North  Level FlightAware Approximate
11:43PM -5.4810 -69.3507 343° North  Level FlightAware Approximate
11:44PM -5.3613 -69.3885 343° North  Level FlightAware Approximate
11:45PM -5.2417 -69.4262 343° North  Level FlightAware Approximate
11:46PM -5.1220 -69.4639 343° North  Level FlightAware Approximate
11:47PM -5.0023 -69.5016 343° North  Level FlightAware Approximate
11:48PM -4.8826 -69.5392 343° North  Level FlightAware Approximate
11:49PM -4.7629 -69.5769 343° North  Level FlightAware Approximate
11:50PM -4.6432 -69.6145 343° North  Level FlightAware Approximate
11:51PM -4.5235 -69.6522 343° North  Level FlightAware Approximate
11:52PM -4.4038 -69.6898 343° North  Level FlightAware Approximate
11:53PM -4.2841 -69.7274 343° North  Level FlightAware Approximate
11:54PM -4.1644 -69.7650 343° North  Level FlightAware Approximate
11:55PM -4.0447 -69.8026 343° North  Level FlightAware Approximate
11:56PM -3.9250 -69.8402 343° North  Level FlightAware Approximate
11:57PM -3.8053 -69.8777 343° North  Level FlightAware Approximate
11:58PM -3.6855 -69.9153 343° North  Level FlightAware Approximate
11:59PM -3.5658 -69.9529 343° North  Level FlightAware Approximate
12:00AM -3.4461 -69.9904 343° North  Level FlightAware Approximate
12:01AM -3.3264 -70.0279 343° North  Level FlightAware Approximate
12:02AM -3.2067 -70.0654 343° North  Level FlightAware Approximate
12:03AM -3.0870 -70.1030 343° North  Level FlightAware Approximate
12:04AM -2.9673 -70.1404 343° North  Level FlightAware Approximate
12:05AM -2.8475 -70.1779 343° North  Level FlightAware Approximate
12:06AM -2.7278 -70.2154 343° North  Level FlightAware Approximate
12:07AM -2.6081 -70.2529 343° North  Level FlightAware Approximate
12:08AM -2.4884 -70.2904 343° North  Level FlightAware Approximate
12:09AM -2.3686 -70.3278 343° North  Level FlightAware Approximate
12:10AM -2.2489 -70.3653 343° North  Level FlightAware Approximate
12:11AM -2.1292 -70.4027 343° North  Level FlightAware Approximate
12:12AM -2.0094 -70.4402 343° North  Level FlightAware Approximate
12:13AM -1.8897 -70.4776 343° North  Level FlightAware Approximate
12:14AM -1.7700 -70.5151 343° North  Level FlightAware Approximate
12:15AM -1.6503 -70.5525 343° North  Level FlightAware Approximate
12:16AM -1.5305 -70.5899 343° North  Level FlightAware Approximate
12:17AM -1.4108 -70.6273 343° North  Level FlightAware Approximate
12:18AM -1.2911 -70.6647 343° North  Level FlightAware Approximate
12:19AM -1.1713 -70.7021 343° North  Level FlightAware Approximate
12:20AM -1.0516 -70.7396 343° North  Level FlightAware Approximate
12:21AM -0.9319 -70.7770 343° North  Level FlightAware Approximate
12:22AM -0.8122 -70.8144 343° North  Level FlightAware Approximate
12:23AM -0.6924 -70.8518 343° North  Level FlightAware Approximate
12:24AM -0.5727 -70.8892 343° North  Level FlightAware Approximate
12:25AM -0.4529 -70.9266 343° North  Level FlightAware Approximate
12:26AM -0.3332 -70.9640 343° North  Level FlightAware Approximate
12:27AM -0.2135 -71.0014 343° North  Level FlightAware Approximate
12:28AM -0.0937 -71.0388 343° North  Level FlightAware Approximate
12:29AM 0.0260 -71.0761 343° North  Level FlightAware Approximate
12:30AM 0.1458 -71.1135 343° North  Level FlightAware Approximate
12:31AM 0.2655 -71.1509 343° North  Level FlightAware Approximate
12:32AM 0.3852 -71.1883 343° North  Level FlightAware Approximate
12:33AM 0.5050 -71.2257 343° North  Level FlightAware Approximate
12:34AM 0.6247 -71.2631 343° North  Level FlightAware Approximate
12:35AM 0.7445 -71.3005 343° North  Level FlightAware Approximate
12:36AM 0.8642 -71.3379 343° North  Level FlightAware Approximate
12:37AM 0.9839 -71.3753 343° North  Level FlightAware Approximate
12:38AM 1.1036 -71.4128 343° North  Level FlightAware Approximate
12:39AM 1.2234 -71.4502 343° North  Level FlightAware Approximate
12:40AM 1.3431 -71.4876 343° North  Level FlightAware Approximate
12:41AM 1.4628 -71.5250 343° North  Level FlightAware Approximate
12:42AM 1.5826 -71.5624 343° North  Level FlightAware Approximate
12:43AM 1.7023 -71.5998 343° North  Level FlightAware Approximate
12:44AM 1.8220 -71.6373 343° North  Level FlightAware Approximate
12:45AM 1.9418 -71.6747 343° North  Level FlightAware Approximate
12:46AM 2.0615 -71.7121 343° North  Level FlightAware Approximate
12:47AM 2.1812 -71.7496 343° North  Level FlightAware Approximate
12:48AM 2.3010 -71.7870 343° North  Level FlightAware Approximate
12:49AM 2.4207 -71.8245 343° North  Level FlightAware Approximate
12:50AM 2.5404 -71.8620 343° North  Level FlightAware Approximate
12:51AM 2.6607 -71.8996 343° North  Level FlightAware Approximate
12:52AM 2.7811 -71.9373 343° North  Level FlightAware Approximate
12:53AM 2.9014 -71.9750 343° North  Level FlightAware Approximate
12:54AM 3.0218 -72.0127 343° North  Level FlightAware Approximate
12:55AM 3.1421 -72.0504 343° North  Level FlightAware Approximate
12:56AM 3.2624 -72.0881 343° North  Level FlightAware Approximate
12:57AM 3.3828 -72.1258 343° North  Level FlightAware Approximate
12:58AM 3.5031 -72.1635 343° North  Level FlightAware Approximate
12:59AM 3.6234 -72.2012 343° North  Level FlightAware Approximate
01:00AM 3.7438 -72.2390 343° North  Level FlightAware Approximate
01:01AM 3.8641 -72.2767 343° North  Level FlightAware Approximate
01:02AM 3.9844 -72.3145 343° North  Level FlightAware Approximate
01:03AM 4.1047 -72.3522 343° North  Level FlightAware Approximate
01:04AM 4.2250 -72.3900 343° North  Level FlightAware Approximate
01:05AM 4.3453 -72.4278 343° North  Level FlightAware Approximate
01:06AM 4.4657 -72.4657 343° North  Level FlightAware Approximate
01:07AM 4.5860 -72.5035 343° North  Level FlightAware Approximate
01:08AM 4.7063 -72.5413 343° North  Level FlightAware Approximate
01:09AM 4.8266 -72.5792 343° North  Level FlightAware Approximate
01:10AM 4.9469 -72.6170 343° North  Level FlightAware Approximate
01:11AM 5.0672 -72.6549 343° North  Level FlightAware Approximate
01:12AM 5.1875 -72.6928 343° North  Level FlightAware Approximate
01:13AM 5.3078 -72.7307 343° North  Level FlightAware Approximate
01:14AM 5.4281 -72.7686 343° North  Level FlightAware Approximate
01:15AM 5.5484 -72.8065 343° North  Level FlightAware Approximate
01:16AM 5.6688 -72.8444 343° North  Level FlightAware Approximate
01:17AM 5.7892 -72.8820 343° North  Level FlightAware Approximate
01:18AM 5.9096 -72.9197 343° North  Level FlightAware Approximate
01:19AM 6.0300 -72.9573 343° North  Level FlightAware Approximate
01:20AM 6.1504 -72.9949 343° North  Level FlightAware Approximate
01:21AM 6.2708 -73.0326 343° North  Level FlightAware Approximate
01:22AM 6.3912 -73.0702 343° North  Level FlightAware Approximate
01:23AM 6.5116 -73.1079 343° North  Level FlightAware Approximate
01:24AM 6.6320 -73.1456 343° North  Level FlightAware Approximate
01:25AM 6.7524 -73.1833 343° North  Level FlightAware Approximate
01:26AM 6.8727 -73.2211 343° North  Level FlightAware Approximate
01:27AM 6.9931 -73.2588 343° North  Level FlightAware Approximate
01:28AM 7.1135 -73.2966 343° North  Level FlightAware Approximate
01:29AM 7.2339 -73.3344 343° North  Level FlightAware Approximate
01:30AM 7.3543 -73.3722 343° North  Level FlightAware Approximate
01:31AM 7.4746 -73.4101 343° North  Level FlightAware Approximate
01:32AM 7.5950 -73.4479 343° North  Level FlightAware Approximate
01:33AM 7.7154 -73.4858 343° North  Level FlightAware Approximate
01:34AM 7.8357 -73.5237 343° North  Level FlightAware Approximate
01:35AM 7.9561 -73.5617 343° North  Level FlightAware Approximate
01:36AM 8.0764 -73.5996 343° North  Level FlightAware Approximate
01:37AM 8.1968 -73.6377 342° North  Level FlightAware Approximate
01:38AM 8.3169 -73.6764 342° North  Level FlightAware Approximate
01:39AM 8.4370 -73.7151 342° North  Level FlightAware Approximate
01:40AM 8.5571 -73.7538 342° North  Level FlightAware Approximate
01:41AM 8.6772 -73.7926 342° North  Level FlightAware Approximate
01:42AM 8.7974 -73.8314 342° North  Level FlightAware Approximate
01:43AM 8.9175 -73.8702 342° North  Level FlightAware Approximate
01:44AM 9.0376 -73.9090 342° North  Level FlightAware Approximate
01:45AM 9.1577 -73.9479 342° North  Level FlightAware Approximate
01:46AM 9.2778 -73.9868 342° North  Level FlightAware Approximate
01:47AM 9.3979 -74.0257 342° North  Level FlightAware Approximate
01:48AM 9.5180 -74.0647 342° North  Level FlightAware Approximate
01:49AM 9.6380 -74.1036 342° North  Level FlightAware Approximate
01:50AM 9.7581 -74.1426 342° North  Level FlightAware Approximate
01:51AM 9.8782 -74.1817 342° North  Level FlightAware Approximate
01:52AM 9.9983 -74.2205 342° North  Level FlightAware Approximate
01:53AM 10.1185 -74.2593 342° North  Level FlightAware Approximate
01:54AM 10.2386 -74.2981 342° North  Level FlightAware Approximate
01:55AM 10.3588 -74.3370 342° North  Level FlightAware Approximate
01:56AM 10.4789 -74.3759 342° North  Level FlightAware Approximate
01:57AM 10.5990 -74.4148 342° North  Level FlightAware Approximate
01:58AM 10.7192 -74.4538 342° North  Level FlightAware Approximate
01:59AM 10.8393 -74.4928 342° North  Level FlightAware Approximate
02:00AM 10.9594 -74.5318 342° North  Level FlightAware Approximate
02:01AM 11.0795 -74.5709 342° North  Level FlightAware Approximate
02:02AM 11.1996 -74.6100 342° North  Level FlightAware Approximate
02:03AM 11.3197 -74.6491 342° North  Level FlightAware Approximate
02:04AM 11.4398 -74.6882 342° North  Level FlightAware Approximate
02:05AM 11.5599 -74.7274 342° North  Level FlightAware Approximate
02:06AM 11.6800 -74.7667 342° North  Level FlightAware Approximate
02:07AM 11.8001 -74.8059 342° North  Level FlightAware Approximate
02:08AM 11.9206 -74.8454 342° North  Level FlightAware Approximate
02:09AM 12.0411 -74.8848 342° North  Level FlightAware Approximate
02:10AM 12.1615 -74.9243 342° North  Level FlightAware Approximate
02:11AM 12.2820 -74.9638 342° North  Level FlightAware Approximate
02:12AM 12.4025 -75.0034 342° North  Level FlightAware Approximate
02:13AM 12.5230 -75.0430 342° North  Level FlightAware Approximate
02:14AM 12.6434 -75.0827 342° North  Level FlightAware Approximate
02:15AM 12.7639 -75.1223 342° North  Level FlightAware Approximate
02:16AM 12.8843 -75.1621 342° North  Level FlightAware Approximate
02:17AM 13.0047 -75.2018 342° North  Level FlightAware Approximate
02:18AM 13.1252 -75.2416 342° North  Level FlightAware Approximate
02:19AM 13.2456 -75.2814 342° North  Level FlightAware Approximate
02:20AM 13.3660 -75.3213 342° North  Level FlightAware Approximate
02:21AM 13.4864 -75.3612 342° North  Level FlightAware Approximate
02:22AM 13.6068 -75.4012 342° North  Level FlightAware Approximate
02:23AM 13.7272 -75.4412 342° North  Level FlightAware Approximate
02:24AM 13.8476 -75.4812 342° North  Level FlightAware Approximate
02:25AM 13.9680 -75.5213 342° North  Level FlightAware Approximate
02:26AM 14.0884 -75.5614 342° North  Level FlightAware Approximate
02:27AM 14.2088 -75.6015 342° North  Level FlightAware Approximate
02:28AM 14.3291 -75.6417 342° North  Level FlightAware Approximate
02:29AM 14.4495 -75.6820 342° North  Level FlightAware Approximate
02:30AM 14.5698 -75.7223 342° North  Level FlightAware Approximate
02:31AM 14.6902 -75.7626 342° North  Level FlightAware Approximate
02:32AM 14.8105 -75.8030 342° North  Level FlightAware Approximate
02:33AM 14.9309 -75.8434 342° North  Level FlightAware Approximate
02:34AM 15.0513 -75.8837 342° North  Level FlightAware Approximate
02:35AM 15.1717 -75.9238 342° North  Level FlightAware Approximate
02:36AM 15.2922 -75.9640 342° North  Level FlightAware Approximate
02:37AM 15.4126 -76.0042 342° North  Level FlightAware Approximate
02:38AM 15.5330 -76.0444 342° North  Level FlightAware Approximate
02:39AM 15.6534 -76.0847 342° North  Level FlightAware Approximate
02:40AM 15.7739 -76.1251 342° North  Level FlightAware Approximate
02:41AM 15.8942 -76.1655 342° North  Level FlightAware Approximate
02:42AM 16.0146 -76.2059 342° North  Level FlightAware Approximate
02:43AM 16.1350 -76.2464 342° North  Level FlightAware Approximate
02:44AM 16.2554 -76.2869 342° North  Level FlightAware Approximate
02:45AM 16.3758 -76.3275 342° North  Level FlightAware Approximate
02:46AM 16.4961 -76.3682 342° North  Level FlightAware Approximate
02:47AM 16.6165 -76.4089 342° North  Level FlightAware Approximate
02:48AM 16.7369 -76.4496 342° North  Level FlightAware Approximate
02:49AM 16.8572 -76.4904 342° North  Level FlightAware Approximate
02:50AM 16.9775 -76.5312 342° North  Level FlightAware Approximate
02:51AM 17.0978 -76.5721 342° North  Level FlightAware Approximate
02:52AM 17.2182 -76.6131 342° North  Level FlightAware Approximate
02:53AM 17.3385 -76.6541 342° North  Level FlightAware Approximate
02:54AM 17.4588 -76.6951 342° North  Level FlightAware Approximate
02:55AM 17.5791 -76.7362 342° North  Level FlightAware Approximate
02:56AM 17.6993 -76.7774 342° North  Level FlightAware Approximate
02:57AM 17.8196 -76.8186 342° North  Level FlightAware Approximate
02:58AM 17.9399 -76.8599 342° North  Level FlightAware Approximate
02:59AM 18.0601 -76.9012 342° North  Level FlightAware Approximate
03:00AM 18.1804 -76.9426 342° North  Level FlightAware Approximate
03:01AM 18.3006 -76.9840 342° North  Level FlightAware Approximate
03:02AM 18.4209 -77.0255 342° North  Level FlightAware Approximate
03:03AM 18.5411 -77.0671 342° North  Level FlightAware Approximate
03:04AM 18.6613 -77.1087 342° North  Level FlightAware Approximate
03:05AM 18.7815 -77.1504 342° North  Level FlightAware Approximate
03:06AM 18.9017 -77.1921 342° North  Level FlightAware Approximate
03:07AM 19.0219 -77.2339 342° North  Level FlightAware Approximate
03:08AM 19.1420 -77.2758 342° North  Level FlightAware Approximate
03:09AM 19.2622 -77.3177 342° North  Level FlightAware Approximate
03:10AM 19.3824 -77.3597 342° North  Level FlightAware Approximate
03:11AM 19.5024 -77.4020 341° North  Level FlightAware Approximate
03:12AM 19.6223 -77.4449 341° North  Level FlightAware Approximate
03:13AM 19.7422 -77.4879 341° North  Level FlightAware Approximate
03:14AM 19.8620 -77.5309 341° North  Level FlightAware Approximate
03:15AM 19.9819 -77.5740 341° North  Level FlightAware Approximate
03:16AM 20.1017 -77.6171 341° North  Level FlightAware Approximate
03:17AM 20.2216 -77.6603 341° North  Level FlightAware Approximate
03:18AM 20.3414 -77.7036 341° North  Level FlightAware Approximate
03:19AM 20.4612 -77.7470 341° North  Level FlightAware Approximate
03:20AM 20.5810 -77.7904 341° North  Level FlightAware Approximate
03:21AM 20.7008 -77.8339 341° North  Level FlightAware Approximate
03:22AM 20.8206 -77.8774 341° North  Level FlightAware Approximate
03:23AM 20.9404 -77.9210 341° North  Level FlightAware Approximate
03:24AM 21.0601 -77.9647 341° North  Level FlightAware Approximate
03:25AM 21.1799 -78.0085 341° North  Level FlightAware Approximate
03:26AM 21.2996 -78.0523 341° North  Level FlightAware Approximate
03:27AM 21.4194 -78.0962 341° North  Level FlightAware Approximate
03:28AM 21.5391 -78.1402 341° North  Level FlightAware Approximate
03:29AM 21.6588 -78.1842 341° North  Level FlightAware Approximate
03:30AM 21.7785 -78.2284 341° North  Level FlightAware Approximate
03:31AM 21.8981 -78.2726 341° North  Level FlightAware Approximate
03:32AM 22.0178 -78.3168 341° North  Level FlightAware Approximate
03:33AM 22.1375 -78.3612 341° North  Level FlightAware Approximate
03:33AM 23.2469 -78.1864 343° North 455 524 36,000  Level Miami Center
03:34AM 22.2571 -78.4056 341° North  Level FlightAware Approximate
03:34AM 23.3636 -78.2281 342° North 448 516 36,000  Level Miami Center
03:35AM 22.3768 -78.4501 341° North  Level FlightAware Approximate
03:35AM 23.4864 -78.2772 340° North 454 522 36,000  Level Miami Center
03:36AM 22.4964 -78.4947 341° North  Level FlightAware Approximate
03:36AM 23.6031 -78.3100 346° North 447 514 36,000  Level Miami Center
03:37AM 22.6162 -78.5387 343° North  Level FlightAware Approximate
03:37AM 23.7239 -78.3569 340° North 447 514 36,000  Level Miami Center
03:38AM 22.7371 -78.5790 343° North  Level FlightAware Approximate
03:38AM 23.8403 -78.4014 341° North 439 505 36,000  Level Miami Center
03:39AM 23.9631 -78.4483 341° North 450 518 36,000  Level Miami Center
03:40AM 24.0797 -78.5000 338° Northwest 450 518 36,000  Level Miami Center
03:41AM 24.1939 -78.5539 337° Northwest 450 518 36,000  Level Miami Center
03:42AM 24.3103 -78.6078 337° Northwest 450 518 36,000  Level Miami Center
03:43AM 24.4225 -78.6594 337° Northwest 450 518 36,000  Level Miami Center
03:44AM 24.5411 -78.7161 337° Northwest 450 518 36,000  Level Miami Center
03:45AM 24.6553 -78.7703 337° Northwest 455 524 36,000  Level Miami Center
03:46AM 24.7819 -78.8294 337° Northwest 455 524 36,000  Level Miami Center
03:47AM 24.8961 -78.8864 336° Northwest 450 518 36,000  Level Miami Center
03:48AM 24.9894 -78.9314 336° Northwest 450 518 36,000  Level Miami Center
03:49AM 25.1308 -78.9911 339° North 455 524 36,000  Level Miami Center
03:50AM 25.2428 -79.0483 335° Northwest 450 518 36,000  Level Miami Center
03:51AM 25.3569 -79.1008 337° Northwest 443 510 36,000  Level Miami Center
03:52AM 25.4750 -79.1583 336° Northwest 443 510 36,000  Level Miami Center
03:53AM 25.5914 -79.2136 337° Northwest 448 516 36,000  Level Miami Center
03:54AM 25.7075 -79.2689 337° Northwest 448 516 36,000  Level Miami Center
03:55AM 25.8067 -79.3217 334° Northwest 443 510 36,000  Level Miami Center
03:56AM 25.9353 -79.3819 337° Northwest 443 510 36,000  Level Miami Center
03:57AM 26.0514 -79.4353 338° Northwest 443 510 36,000  Level Miami Center
03:58AM 26.1714 -79.4936 336° Northwest 454 522 36,000  Level Miami Center
03:59AM 26.2708 -79.5467 334° Northwest 454 522 36,000  Level Miami Center
04:00AM 26.3992 -79.6100 336° Northwest 454 522 36,000  Level Miami Center
04:01AM 26.5047 -79.6589 337° Northwest 454 522 36,000  Level Miami Center
04:02AM 26.6308 -79.7222 336° Northwest 454 522 36,000  Level Miami Center
04:03AM 26.7344 -79.7736 336° Northwest 454 522 36,000  Level Miami Center
04:04AM 26.8583 -79.8325 337° Northwest 448 516 36,000  Level Miami Center
04:05AM 26.9742 -79.8914 336° Northwest 453 521 36,000  Level Miami Center
04:06AM 27.0775 -79.9453 335° Northwest 453 521 36,000  Level Miami Center
04:07AM 27.1911 -80.0022 336° Northwest 453 521 36,000  Level Miami Center
04:08AM 27.3067 -80.0592 336° Northwest 453 521 36,000  Level Miami Center
04:09AM 27.4225 -80.1161 336° Northwest 453 521 36,000  Level Miami Center
04:10AM 27.5361 -80.1731 336° Northwest 453 521 36,000  Level Miami Center
04:11AM 27.6494 -80.2303 336° Northwest 453 521 36,000  Level Miami Center
04:12AM 27.7650 -80.2900 335° Northwest 453 521 36,000  Level Miami Center
04:13AM 27.8931 -80.3503 337° Northwest 458 527 36,000  Level Miami Center
04:14AM 28.0083 -80.4081 336° Northwest 458 527 36,000  Level Miami Center
04:15AM 28.1114 -80.4631 335° Northwest 458 527 36,000  Level Miami Center
04:16AM 28.2392 -80.5236 337° Northwest 458 527 36,000  Level Miami Center
04:17AM 28.3567 -80.5839 336° Northwest 458 527 36,000  Level Miami Center
04:19AM 28.5461 -80.6853 335° Northwest 467 537 36,000  Level Jacksonville Center
04:20AM 28.6747 -80.7486 337° Northwest 462 532 36,000  Level Jacksonville Center
04:21AM 28.7903 -80.8103 335° Northwest 462 532 36,000  Level Jacksonville Center
04:22AM 28.9061 -80.8694 336° Northwest 462 532 36,000  Level Jacksonville Center
04:23AM 29.0219 -80.9289 336° Northwest 448 516 36,000  Level Jacksonville Center
04:24AM 29.1375 -80.9861 337° Northwest 448 516 36,000  Level Jacksonville Center
04:25AM 29.2533 -81.0481 335° Northwest 448 516 36,000  Level Jacksonville Center
04:26AM 29.3689 -81.1053 337° Northwest 454 522 36,000  Level Jacksonville Center
04:27AM 29.4678 -81.1608 334° Northwest 444 511 36,000  Level Jacksonville Center
04:28AM 29.5833 -81.2208 336° Northwest 444 511 36,000  Level Jacksonville Center
04:29AM 29.6989 -81.2811 336° Northwest 444 511 36,000  Level Jacksonville Center
04:30AM 29.8125 -81.3414 335° Northwest 444 511 36,000  Level Jacksonville Center
04:31AM 29.9258 -81.3994 336° Northwest 444 511 36,000  Level Jacksonville Center
04:32AM 30.0539 -81.4672 335° Northwest 444 511 36,000  Level Jacksonville Center
04:33AM 30.1694 -81.5278 336° Northwest 444 511 36,000  Level Jacksonville Center
04:34AM 30.2850 -81.5864 336° Northwest 444 511 36,000  Level Jacksonville Center
04:35AM 30.4025 -81.6497 335° Northwest 450 518 36,000  Level Jacksonville Center
04:36AM 30.5178 -81.7133 335° Northwest 450 518 36,000  Level Jacksonville Center
04:37AM 30.6333 -81.7722 336° Northwest 450 518 36,000  Level Jacksonville Center
04:38AM 30.7486 -81.8386 334° Northwest 450 518 36,000  Level Jacksonville Center
04:39AM 30.8619 -81.8978 336° Northwest 445 512 36,000  Level Jacksonville Center
04:40AM 30.9772 -81.9597 335° Northwest 445 512 36,000  Level Jacksonville Center
04:41AM 31.0903 -82.0242 334° Northwest 445 512 36,000  Level Jacksonville Center
04:42AM 31.2036 -82.0861 335° Northwest 445 512 36,000  Level Jacksonville Center
04:44AM 31.4533 -82.2156 336° Northwest 444 511 36,000  Level Atlanta Center
04:45AM 31.5669 -82.2792 334° Northwest 444 511 36,000  Level Atlanta Center
04:46AM 31.6806 -82.3403 335° Northwest 444 511 36,000  Level Atlanta Center
04:47AM 31.7922 -82.4042 334° Northwest 444 511 36,000  Level Atlanta Center
04:48AM 31.9036 -82.4658 335° Northwest 444 511 36,000  Level Atlanta Center
04:49AM 32.0128 -82.5250 335° Northwest 444 511 36,000  Level Atlanta Center
04:50AM 32.1264 -82.5869 335° Northwest 444 511 36,000 -60 Level Atlanta Center
04:51AM 32.2375 -82.6489 335° Northwest 444 511 35,900 -780 Descending Atlanta Center
04:52AM 32.3469 -82.7111 334° Northwest 444 511 34,500 -1,440 Descending Atlanta Center
04:53AM 32.4622 -82.7736 335° Northwest 444 511 33,100 -1,380 Descending Atlanta Center
04:54AM 32.5756 -82.8383 334° Northwest 444 511 31,800 -1,260 Descending Atlanta Center
04:55AM 32.6911 -82.9036 335° Northwest 449 517 30,600 -1,620 Descending Atlanta Center
04:56AM 32.8064 -82.9686 335° Northwest 456 525 28,600 -1,320 Descending Atlanta Center
04:57AM 32.9175 -83.0292 335° Northwest 442 509 28,000 -420 Descending Atlanta Center
04:58AM 32.9872 -83.1300 310° West 395 455 27,800 -900 Descending Atlanta Center
04:59AM 32.9986 -83.2461 277° West 346 398 26,300 -2,100 Descending Atlanta Center
05:00AM 33.0117 -83.3675 277° West 351 404 23,700 -2,820 Descending Atlanta Center
05:01AM 33.0478 -83.4739 292° West 358 412 20,700 -3,420 Descending Atlanta Center
05:02AM 33.0961 -83.5778 299° West 358 412 16,900 -3,540 Descending Atlanta Center
05:03AM 33.1467 -83.6742 302° West 353 406 13,700 -2,460 Descending Atlanta Center
05:04AM 33.1908 -83.7633 301° West 333 383 12,000 -960 Descending Atlanta Center
05:05AM 33.2389 -83.8475 304° West 328 377 11,800 -660 Descending Atlanta Center
05:06AM 33.2994 -83.9169 316° Northwest 304 350 10,700 -1,320 Descending Atlanta Center
05:07AM 33.3642 -83.9617 330° Northwest 283 326 9,200 -1,500 Descending Atlanta Center
05:08AM 33.4331 -84.0064 332° Northwest 276 318 7,700 -1,440 Descending Atlanta Center
05:09AM 33.4917 -84.0489 329° Northwest 276 318 6,400 -1,200 Descending Atlanta Center
05:10AM 33.5500 -84.0861 332° Northwest 259 298 5,300 -1,200 Descending Atlanta Center
05:11AM 33.6167 -84.1333 329° Northwest 216 249 4,000 -660 Descending Atlanta TRACON
05:12AM 33.6333 -84.1833 292° West 184 212 4,000 -60 Level Atlanta TRACON
05:13AM 33.6333 -84.2500 270° West 184 212 3,900 -600 Descending Atlanta TRACON
05:14AM 33.6333 -84.3000 270° West 182 209 2,900 -960 Descending Atlanta TRACON
05:15AM 33.6333 -84.3500 270° West 148 170 2,100 -900 Descending Atlanta TRACON
05:16AM 33.6333 -84.4000 270° West 148 170 1,300 -840 Descending Atlanta TRACON